sensor_id;sensor_type;location;lat;lon;timestamp;temperature;humidity
15413;DHT22;7805;49.554;7.632;2024-02-26T00:01:26;8.40;99.90
15413;DHT22;7805;49.554;7.632;2024-02-26T00:03:51;8.40;99.90
15413;DHT22;7805;49.554;7.632;2024-02-26T00:06:17;8.30;99.90
15413;DHT22;7805;49.554;7.632;2024-02-26T00:08:44;8.30;99.90
15413;DHT22;7805;49.554;7.632;2024-02-26T00:11:09;8.20;99.90
15413;DHT22;7805;49.554;7.632;2024-02-26T00:13:36;8.30;99.90
15413;DHT22;7805;49.554;7.632;2024-02-26T00:16:02;8.40;99.90
15413;DHT22;7805;49.554;7.632;2024-02-26T00:18:27;8.50;99.90
15413;DHT22;7805;49.554;7.632;2024-02-26T00:20:53;8.60;99.90
15413;DHT22;7805;49.554;7.632;2024-02-26T00:23:19;8.90;99.90
15413;DHT22;7805;49.554;7.632;2024-02-26T00:25:44;8.80;99.90
15413;DHT22;7805;49.554;7.632;2024-02-26T00:28:10;8.80;99.90
15413;DHT22;7805;49.554;7.632;2024-02-26T00:30:36;8.80;99.90
15413;DHT22;7805;49.554;7.632;2024-02-26T00:33:02;8.80;99.90
15413;DHT22;7805;49.554;7.632;2024-02-26T00:35:27;8.80;99.90
15413;DHT22;7805;49.554;7.632;2024-02-26T00:37:56;8.80;99.90
15413;DHT22;7805;49.554;7.632;2024-02-26T00:40:21;8.80;99.90
15413;DHT22;7805;49.554;7.632;2024-02-26T00:42:47;8.80;99.90
15413;DHT22;7805;49.554;7.632;2024-02-26T00:45:14;8.80;99.90
15413;DHT22;7805;49.554;7.632;2024-02-26T00:47:39;8.80;99.90
15413;DHT22;7805;49.554;7.632;2024-02-26T00:50:13;8.80;99.90
15413;DHT22;7805;49.554;7.632;2024-02-26T00:52:38;8.80;99.90
15413;DHT22;7805;49.554;7.632;2024-02-26T00:55:04;8.80;99.90
15413;DHT22;7805;49.554;7.632;2024-02-26T00:57:30;8.80;99.90
15413;DHT22;7805;49.554;7.632;2024-02-26T00:59:55;8.70;99.90
15413;DHT22;7805;49.554;7.632;2024-02-26T01:02:22;8.60;99.90
15413;DHT22;7805;49.554;7.632;2024-02-26T01:04:48;8.60;99.90
15413;DHT22;7805;49.554;7.632;2024-02-26T01:07:13;8.60;99.90
15413;DHT22;7805;49.554;7.632;2024-02-26T01:09:39;8.60;99.90
15413;DHT22;7805;49.554;7.632;2024-02-26T01:12:04;8.60;99.90
15413;DHT22;7805;49.554;7.632;2024-02-26T01:14:31;8.50;99.90
15413;DHT22;7805;49.554;7.632;2024-02-26T01:16:56;8.40;99.90
15413;DHT22;7805;49.554;7.632;2024-02-26T01:19:22;8.40;99.90
15413;DHT22;7805;49.554;7.632;2024-02-26T01:21:47;8.40;99.90
15413;DHT22;7805;49.554;7.632;2024-02-26T01:24:13;8.30;99.90
15413;DHT22;7805;49.554;7.632;2024-02-26T01:26:39;8.50;99.90
15413;DHT22;7805;49.554;7.632;2024-02-26T01:29:04;8.40;99.90
15413;DHT22;7805;49.554;7.632;2024-02-26T01:31:30;8.40;99.90
15413;DHT22;7805;49.554;7.632;2024-02-26T01:33:55;8.40;99.90
15413;DHT22;7805;49.554;7.632;2024-02-26T01:36:21;8.40;99.90
15413;DHT22;7805;49.554;7.632;2024-02-26T01:38:47;8.40;99.90
15413;DHT22;7805;49.554;7.632;2024-02-26T01:41:13;8.40;99.90
15413;DHT22;7805;49.554;7.632;2024-02-26T01:43:39;8.30;99.90
15413;DHT22;7805;49.554;7.632;2024-02-26T01:46:05;8.20;99.90
15413;DHT22;7805;49.554;7.632;2024-02-26T01:48:34;8.30;99.90
15413;DHT22;7805;49.554;7.632;2024-02-26T01:51:00;8.40;99.90
15413;DHT22;7805;49.554;7.632;2024-02-26T01:53:26;8.40;99.90
15413;DHT22;7805;49.554;7.632;2024-02-26T01:55:51;8.40;99.90
15413;DHT22;7805;49.554;7.632;2024-02-26T01:58:17;8.30;99.90
15413;DHT22;7805;49.554;7.632;2024-02-26T02:00:43;8.30;99.90
15413;DHT22;7805;49.554;7.632;2024-02-26T02:03:12;8.30;99.90
15413;DHT22;7805;49.554;7.632;2024-02-26T02:05:37;8.30;99.90
15413;DHT22;7805;49.554;7.632;2024-02-26T02:08:10;8.20;99.90
15413;DHT22;7805;49.554;7.632;2024-02-26T02:10:37;8.10;99.90
15413;DHT22;7805;49.554;7.632;2024-02-26T02:13:03;8.10;99.90
15413;DHT22;7805;49.554;7.632;2024-02-26T02:15:29;8.20;99.90
15413;DHT22;7805;49.554;7.632;2024-02-26T02:17:55;8.20;99.90
15413;DHT22;7805;49.554;7.632;2024-02-26T02:20:34;8.20;99.90
15413;DHT22;7805;49.554;7.632;2024-02-26T02:23:00;8.10;99.90
15413;DHT22;7805;49.554;7.632;2024-02-26T02:25:25;8.20;99.90
15413;DHT22;7805;49.554;7.632;2024-02-26T02:27:53;8.20;99.90
15413;DHT22;7805;49.554;7.632;2024-02-26T02:30:20;8.30;99.90
15413;DHT22;7805;49.554;7.632;2024-02-26T02:32:46;8.30;99.90
15413;DHT22;7805;49.554;7.632;2024-02-26T02:35:12;8.30;99.90
15413;DHT22;7805;49.554;7.632;2024-02-26T02:37:37;8.30;99.90
15413;DHT22;7805;49.554;7.632;2024-02-26T02:40:03;8.30;99.90
15413;DHT22;7805;49.554;7.632;2024-02-26T02:42:30;8.20;99.90
15413;DHT22;7805;49.554;7.632;2024-02-26T02:44:56;8.30;99.90
15413;DHT22;7805;49.554;7.632;2024-02-26T02:47:21;8.20;99.90
15413;DHT22;7805;49.554;7.632;2024-02-26T02:49:47;8.30;99.90
15413;DHT22;7805;49.554;7.632;2024-02-26T02:52:12;8.30;99.90
15413;DHT22;7805;49.554;7.632;2024-02-26T02:54:38;8.30;99.90
15413;DHT22;7805;49.554;7.632;2024-02-26T02:57:07;8.30;99.90
15413;DHT22;7805;49.554;7.632;2024-02-26T02:59:33;8.40;99.90
15413;DHT22;7805;49.554;7.632;2024-02-26T03:01:59;8.30;99.90
15413;DHT22;7805;49.554;7.632;2024-02-26T03:04:25;8.30;99.90
15413;DHT22;7805;49.554;7.632;2024-02-26T03:06:50;8.30;99.90
15413;DHT22;7805;49.554;7.632;2024-02-26T03:09:16;8.30;99.90
15413;DHT22;7805;49.554;7.632;2024-02-26T03:11:41;8.30;99.90
15413;DHT22;7805;49.554;7.632;2024-02-26T03:14:07;8.30;99.90
15413;DHT22;7805;49.554;7.632;2024-02-26T03:16:32;8.40;99.90
15413;DHT22;7805;49.554;7.632;2024-02-26T03:18:58;8.30;99.90
15413;DHT22;7805;49.554;7.632;2024-02-26T03:21:25;7.20;99.90
15413;DHT22;7805;49.554;7.632;2024-02-26T03:23:50;8.30;99.90
15413;DHT22;7805;49.554;7.632;2024-02-26T03:26:16;8.30;99.90
15413;DHT22;7805;49.554;7.632;2024-02-26T03:28:42;8.30;99.90
15413;DHT22;7805;49.554;7.632;2024-02-26T03:31:07;8.30;99.90
15413;DHT22;7805;49.554;7.632;2024-02-26T03:33:34;8.30;99.90
15413;DHT22;7805;49.554;7.632;2024-02-26T03:35:59;8.30;99.90
15413;DHT22;7805;49.554;7.632;2024-02-26T03:38:25;8.30;99.90
15413;DHT22;7805;49.554;7.632;2024-02-26T03:40:51;8.30;99.90
15413;DHT22;7805;49.554;7.632;2024-02-26T03:43:17;8.30;99.90
15413;DHT22;7805;49.554;7.632;2024-02-26T03:45:42;8.20;99.90
15413;DHT22;7805;49.554;7.632;2024-02-26T03:48:08;8.20;99.90
15413;DHT22;7805;49.554;7.632;2024-02-26T03:50:36;8.20;99.90
15413;DHT22;7805;49.554;7.632;2024-02-26T03:53:05;8.10;99.90
15413;DHT22;7805;49.554;7.632;2024-02-26T03:55:31;8.10;99.90
15413;DHT22;7805;49.554;7.632;2024-02-26T03:57:56;8.20;99.90
15413;DHT22;7805;49.554;7.632;2024-02-26T04:00:22;8.30;99.90
15413;DHT22;7805;49.554;7.632;2024-02-26T04:02:47;8.20;99.90
15413;DHT22;7805;49.554;7.632;2024-02-26T04:05:13;8.20;99.90
15413;DHT22;7805;49.554;7.632;2024-02-26T04:07:40;8.20;99.90
15413;DHT22;7805;49.554;7.632;2024-02-26T04:10:12;8.20;99.90
15413;DHT22;7805;49.554;7.632;2024-02-26T04:12:39;8.20;99.90
15413;DHT22;7805;49.554;7.632;2024-02-26T04:15:07;8.20;99.90
15413;DHT22;7805;49.554;7.632;2024-02-26T04:17:32;8.20;99.90
15413;DHT22;7805;49.554;7.632;2024-02-26T04:19:58;8.10;99.90
15413;DHT22;7805;49.554;7.632;2024-02-26T04:22:23;8.20;99.90
15413;DHT22;7805;49.554;7.632;2024-02-26T04:24:49;8.20;99.90
15413;DHT22;7805;49.554;7.632;2024-02-26T04:27:14;8.20;99.90
15413;DHT22;7805;49.554;7.632;2024-02-26T04:29:40;8.20;99.90
15413;DHT22;7805;49.554;7.632;2024-02-26T04:32:06;8.20;99.90
15413;DHT22;7805;49.554;7.632;2024-02-26T04:34:31;8.20;99.90
15413;DHT22;7805;49.554;7.632;2024-02-26T04:36:57;7.00;99.90
15413;DHT22;7805;49.554;7.632;2024-02-26T04:39:23;8.20;99.90
15413;DHT22;7805;49.554;7.632;2024-02-26T04:41:48;8.20;99.90
15413;DHT22;7805;49.554;7.632;2024-02-26T04:44:14;8.20;99.90
15413;DHT22;7805;49.554;7.632;2024-02-26T04:46:39;8.20;99.90
15413;DHT22;7805;49.554;7.632;2024-02-26T04:49:05;8.20;99.90
15413;DHT22;7805;49.554;7.632;2024-02-26T04:51:31;8.20;99.90
15413;DHT22;7805;49.554;7.632;2024-02-26T04:53:56;8.20;99.90
15413;DHT22;7805;49.554;7.632;2024-02-26T04:56:22;8.30;99.90
15413;DHT22;7805;49.554;7.632;2024-02-26T04:58:48;8.30;99.90
15413;DHT22;7805;49.554;7.632;2024-02-26T05:01:13;8.30;99.90
15413;DHT22;7805;49.554;7.632;2024-02-26T05:03:41;8.40;99.90
15413;DHT22;7805;49.554;7.632;2024-02-26T05:06:06;8.40;99.90
15413;DHT22;7805;49.554;7.632;2024-02-26T05:08:32;8.40;99.90
15413;DHT22;7805;49.554;7.632;2024-02-26T05:10:59;8.40;99.90
15413;DHT22;7805;49.554;7.632;2024-02-26T05:13:25;8.40;99.90
15413;DHT22;7805;49.554;7.632;2024-02-26T05:15:51;8.40;99.90
15413;DHT22;7805;49.554;7.632;2024-02-26T05:18:17;8.30;99.90
15413;DHT22;7805;49.554;7.632;2024-02-26T05:20:43;8.40;99.90
15413;DHT22;7805;49.554;7.632;2024-02-26T05:23:09;8.30;99.90
15413;DHT22;7805;49.554;7.632;2024-02-26T05:25:35;8.30;99.90
15413;DHT22;7805;49.554;7.632;2024-02-26T05:28:00;8.20;99.90
15413;DHT22;7805;49.554;7.632;2024-02-26T05:30:26;8.20;99.90
15413;DHT22;7805;49.554;7.632;2024-02-26T05:32:53;8.20;99.90
15413;DHT22;7805;49.554;7.632;2024-02-26T05:35:19;8.20;99.90
15413;DHT22;7805;49.554;7.632;2024-02-26T05:37:45;8.20;99.90
15413;DHT22;7805;49.554;7.632;2024-02-26T05:40:11;8.20;99.90
15413;DHT22;7805;49.554;7.632;2024-02-26T05:42:37;8.20;99.90
15413;DHT22;7805;49.554;7.632;2024-02-26T05:45:03;8.30;99.90
15413;DHT22;7805;49.554;7.632;2024-02-26T05:47:32;6.50;99.90
15413;DHT22;7805;49.554;7.632;2024-02-26T05:49:58;8.40;99.90
15413;DHT22;7805;49.554;7.632;2024-02-26T05:52:26;8.40;99.90
15413;DHT22;7805;49.554;7.632;2024-02-26T05:54:51;8.40;99.90
15413;DHT22;7805;49.554;7.632;2024-02-26T05:57:17;8.30;99.90
15413;DHT22;7805;49.554;7.632;2024-02-26T05:59:44;8.40;99.90
15413;DHT22;7805;49.554;7.632;2024-02-26T06:02:09;8.30;99.90
15413;DHT22;7805;49.554;7.632;2024-02-26T06:04:35;8.30;99.90
15413;DHT22;7805;49.554;7.632;2024-02-26T06:07:00;8.40;99.90
15413;DHT22;7805;49.554;7.632;2024-02-26T06:09:26;8.40;99.90
15413;DHT22;7805;49.554;7.632;2024-02-26T06:11:51;8.40;99.90
15413;DHT22;7805;49.554;7.632;2024-02-26T06:14:17;8.40;99.90
15413;DHT22;7805;49.554;7.632;2024-02-26T06:16:44;8.40;99.90
15413;DHT22;7805;49.554;7.632;2024-02-26T06:19:10;8.30;99.90
15413;DHT22;7805;49.554;7.632;2024-02-26T06:21:36;8.40;99.90
15413;DHT22;7805;49.554;7.632;2024-02-26T06:24:02;8.40;99.90
15413;DHT22;7805;49.554;7.632;2024-02-26T06:26:27;8.40;99.90
15413;DHT22;7805;49.554;7.632;2024-02-26T06:28:58;8.40;99.90
15413;DHT22;7805;49.554;7.632;2024-02-26T06:31:24;8.40;99.90
15413;DHT22;7805;49.554;7.632;2024-02-26T06:33:49;8.40;99.90
15413;DHT22;7805;49.554;7.632;2024-02-26T06:36:18;8.40;99.90
15413;DHT22;7805;49.554;7.632;2024-02-26T06:38:44;8.40;99.90
15413;DHT22;7805;49.554;7.632;2024-02-26T06:41:09;8.50;99.90
15413;DHT22;7805;49.554;7.632;2024-02-26T06:43:35;8.40;99.90
15413;DHT22;7805;49.554;7.632;2024-02-26T06:46:00;8.40;99.90
15413;DHT22;7805;49.554;7.632;2024-02-26T06:48:26;8.50;99.90
15413;DHT22;7805;49.554;7.632;2024-02-26T06:50:51;8.40;99.90
15413;DHT22;7805;49.554;7.632;2024-02-26T06:53:17;8.50;99.90
15413;DHT22;7805;49.554;7.632;2024-02-26T06:55:43;8.50;99.90
15413;DHT22;7805;49.554;7.632;2024-02-26T06:58:08;8.40;99.90
15413;DHT22;7805;49.554;7.632;2024-02-26T07:00:34;8.40;99.90
15413;DHT22;7805;49.554;7.632;2024-02-26T07:03:00;8.40;99.90
15413;DHT22;7805;49.554;7.632;2024-02-26T07:05:26;8.30;99.90
15413;DHT22;7805;49.554;7.632;2024-02-26T07:07:52;8.30;99.90
15413;DHT22;7805;49.554;7.632;2024-02-26T07:10:18;8.30;99.90
15413;DHT22;7805;49.554;7.632;2024-02-26T07:12:44;8.20;99.90
15413;DHT22;7805;49.554;7.632;2024-02-26T07:15:10;8.20;99.90
15413;DHT22;7805;49.554;7.632;2024-02-26T07:17:35;8.30;99.90
15413;DHT22;7805;49.554;7.632;2024-02-26T07:20:01;8.40;99.90
15413;DHT22;7805;49.554;7.632;2024-02-26T07:22:29;8.50;99.90
15413;DHT22;7805;49.554;7.632;2024-02-26T07:24:55;8.50;99.90
15413;DHT22;7805;49.554;7.632;2024-02-26T07:27:21;8.60;99.90
15413;DHT22;7805;49.554;7.632;2024-02-26T07:29:47;8.60;99.90
15413;DHT22;7805;49.554;7.632;2024-02-26T07:32:12;8.70;99.90
15413;DHT22;7805;49.554;7.632;2024-02-26T07:34:38;8.70;99.90
15413;DHT22;7805;49.554;7.632;2024-02-26T07:37:07;8.80;99.90
15413;DHT22;7805;49.554;7.632;2024-02-26T07:39:33;8.80;99.90
15413;DHT22;7805;49.554;7.632;2024-02-26T07:41:58;8.90;99.90
15413;DHT22;7805;49.554;7.632;2024-02-26T07:44:24;8.90;99.90
15413;DHT22;7805;49.554;7.632;2024-02-26T07:46:50;9.00;99.90
15413;DHT22;7805;49.554;7.632;2024-02-26T07:49:15;9.00;99.90
15413;DHT22;7805;49.554;7.632;2024-02-26T07:51:41;9.10;99.90
15413;DHT22;7805;49.554;7.632;2024-02-26T07:54:07;9.10;99.90
15413;DHT22;7805;49.554;7.632;2024-02-26T07:56:33;9.10;99.90
15413;DHT22;7805;49.554;7.632;2024-02-26T07:58:59;9.10;99.90
15413;DHT22;7805;49.554;7.632;2024-02-26T08:01:24;9.10;99.90
15413;DHT22;7805;49.554;7.632;2024-02-26T08:03:52;9.00;99.90
15413;DHT22;7805;49.554;7.632;2024-02-26T08:06:18;9.10;99.90
15413;DHT22;7805;49.554;7.632;2024-02-26T08:08:44;9.10;99.90
15413;DHT22;7805;49.554;7.632;2024-02-26T08:11:09;9.20;99.90
15413;DHT22;7805;49.554;7.632;2024-02-26T08:13:35;9.10;99.90
15413;DHT22;7805;49.554;7.632;2024-02-26T08:16:01;9.20;99.90
15413;DHT22;7805;49.554;7.632;2024-02-26T08:18:27;9.20;99.90
15413;DHT22;7805;49.554;7.632;2024-02-26T08:20:52;9.20;99.90
15413;DHT22;7805;49.554;7.632;2024-02-26T08:23:18;9.20;99.90
15413;DHT22;7805;49.554;7.632;2024-02-26T08:25:43;9.20;99.90
15413;DHT22;7805;49.554;7.632;2024-02-26T08:28:09;9.30;99.90
15413;DHT22;7805;49.554;7.632;2024-02-26T08:30:38;9.30;99.90
15413;DHT22;7805;49.554;7.632;2024-02-26T08:33:04;9.30;99.90
15413;DHT22;7805;49.554;7.632;2024-02-26T08:35:30;9.40;99.90
15413;DHT22;7805;49.554;7.632;2024-02-26T08:37:55;9.50;99.90
15413;DHT22;7805;49.554;7.632;2024-02-26T08:40:21;9.50;99.90
15413;DHT22;7805;49.554;7.632;2024-02-26T08:42:46;9.50;99.90
15413;DHT22;7805;49.554;7.632;2024-02-26T08:45:12;9.50;99.90
15413;DHT22;7805;49.554;7.632;2024-02-26T08:47:40;9.50;99.90
15413;DHT22;7805;49.554;7.632;2024-02-26T08:50:06;9.40;99.90
15413;DHT22;7805;49.554;7.632;2024-02-26T08:52:32;9.60;99.90
15413;DHT22;7805;49.554;7.632;2024-02-26T08:54:58;9.70;99.90
15413;DHT22;7805;49.554;7.632;2024-02-26T08:57:24;9.80;99.90
15413;DHT22;7805;49.554;7.632;2024-02-26T08:59:52;9.90;99.90
15413;DHT22;7805;49.554;7.632;2024-02-26T09:02:17;9.90;99.90
15413;DHT22;7805;49.554;7.632;2024-02-26T09:04:45;9.90;99.90
15413;DHT22;7805;49.554;7.632;2024-02-26T09:07:10;10.00;99.90
15413;DHT22;7805;49.554;7.632;2024-02-26T09:09:36;10.10;99.90
15413;DHT22;7805;49.554;7.632;2024-02-26T09:12:02;10.20;99.90
15413;DHT22;7805;49.554;7.632;2024-02-26T09:14:28;10.30;99.90
15413;DHT22;7805;49.554;7.632;2024-02-26T09:16:53;10.30;99.90
15413;DHT22;7805;49.554;7.632;2024-02-26T09:19:19;10.30;99.90
15413;DHT22;7805;49.554;7.632;2024-02-26T09:21:45;10.40;99.90
15413;DHT22;7805;49.554;7.632;2024-02-26T09:24:11;10.70;99.90
15413;DHT22;7805;49.554;7.632;2024-02-26T09:26:37;10.80;99.90
15413;DHT22;7805;49.554;7.632;2024-02-26T09:29:03;10.70;99.90
15413;DHT22;7805;49.554;7.632;2024-02-26T09:31:30;10.80;99.90
15413;DHT22;7805;49.554;7.632;2024-02-26T09:33:55;11.10;99.90
15413;DHT22;7805;49.554;7.632;2024-02-26T09:36:21;10.80;99.90
15413;DHT22;7805;49.554;7.632;2024-02-26T09:38:47;10.90;99.90
15413;DHT22;7805;49.554;7.632;2024-02-26T09:41:14;11.00;99.90
15413;DHT22;7805;49.554;7.632;2024-02-26T09:43:43;11.00;99.90
15413;DHT22;7805;49.554;7.632;2024-02-26T09:46:10;11.00;99.90
15413;DHT22;7805;49.554;7.632;2024-02-26T09:48:37;11.00;99.90
15413;DHT22;7805;49.554;7.632;2024-02-26T09:51:03;11.10;99.90
15413;DHT22;7805;49.554;7.632;2024-02-26T09:53:30;11.20;99.90
15413;DHT22;7805;49.554;7.632;2024-02-26T09:55:57;11.30;99.90
15413;DHT22;7805;49.554;7.632;2024-02-26T09:58:24;11.40;99.90
15413;DHT22;7805;49.554;7.632;2024-02-26T10:00:55;11.40;99.90
15413;DHT22;7805;49.554;7.632;2024-02-26T10:03:30;11.50;99.90
15413;DHT22;7805;49.554;7.632;2024-02-26T10:05:56;11.60;99.90
15413;DHT22;7805;49.554;7.632;2024-02-26T10:08:24;11.70;99.90
15413;DHT22;7805;49.554;7.632;2024-02-26T10:10:51;11.70;99.90
15413;DHT22;7805;49.554;7.632;2024-02-26T10:13:19;11.70;99.90
15413;DHT22;7805;49.554;7.632;2024-02-26T10:15:45;11.70;99.90
15413;DHT22;7805;49.554;7.632;2024-02-26T10:18:11;11.60;99.90
15413;DHT22;7805;49.554;7.632;2024-02-26T10:20:37;11.60;99.90
15413;DHT22;7805;49.554;7.632;2024-02-26T10:23:03;11.50;99.90
15413;DHT22;7805;49.554;7.632;2024-02-26T10:25:30;11.70;99.90
15413;DHT22;7805;49.554;7.632;2024-02-26T10:28:00;11.70;99.90
15413;DHT22;7805;49.554;7.632;2024-02-26T10:30:29;11.80;99.90
15413;DHT22;7805;49.554;7.632;2024-02-26T10:32:56;12.00;99.90
15413;DHT22;7805;49.554;7.632;2024-02-26T10:35:22;12.00;99.90
15413;DHT22;7805;49.554;7.632;2024-02-26T10:37:49;12.10;99.90
15413;DHT22;7805;49.554;7.632;2024-02-26T10:40:15;12.10;99.90
15413;DHT22;7805;49.554;7.632;2024-02-26T10:42:41;12.10;99.90
15413;DHT22;7805;49.554;7.632;2024-02-26T10:45:09;12.20;99.90
15413;DHT22;7805;49.554;7.632;2024-02-26T10:47:35;12.30;99.90
15413;DHT22;7805;49.554;7.632;2024-02-26T10:50:05;12.50;99.90
15413;DHT22;7805;49.554;7.632;2024-02-26T10:52:36;12.80;99.90
15413;DHT22;7805;49.554;7.632;2024-02-26T10:55:04;13.10;99.90
15413;DHT22;7805;49.554;7.632;2024-02-26T10:57:40;13.40;99.90
15413;DHT22;7805;49.554;7.632;2024-02-26T11:00:06;13.60;99.90
15413;DHT22;7805;49.554;7.632;2024-02-26T11:02:33;13.70;99.90
15413;DHT22;7805;49.554;7.632;2024-02-26T11:05:02;13.70;99.90
15413;DHT22;7805;49.554;7.632;2024-02-26T11:07:30;13.50;99.90
15413;DHT22;7805;49.554;7.632;2024-02-26T11:09:56;13.20;99.90
15413;DHT22;7805;49.554;7.632;2024-02-26T11:12:23;13.40;99.90
15413;DHT22;7805;49.554;7.632;2024-02-26T11:14:50;12.90;99.90
15413;DHT22;7805;49.554;7.632;2024-02-26T11:17:22;13.00;99.90
15413;DHT22;7805;49.554;7.632;2024-02-26T11:19:48;13.00;99.90
15413;DHT22;7805;49.554;7.632;2024-02-26T11:22:15;12.90;99.90
15413;DHT22;7805;49.554;7.632;2024-02-26T11:24:40;12.90;99.90
15413;DHT22;7805;49.554;7.632;2024-02-26T11:27:10;12.80;99.90
15413;DHT22;7805;49.554;7.632;2024-02-26T11:29:52;12.90;99.90
15413;DHT22;7805;49.554;7.632;2024-02-26T11:32:18;13.20;99.90
15413;DHT22;7805;49.554;7.632;2024-02-26T11:34:44;13.20;99.90
15413;DHT22;7805;49.554;7.632;2024-02-26T11:37:17;13.20;99.90
15413;DHT22;7805;49.554;7.632;2024-02-26T11:39:43;13.30;99.90
15413;DHT22;7805;49.554;7.632;2024-02-26T11:42:14;13.20;99.90
15413;DHT22;7805;49.554;7.632;2024-02-26T11:44:40;13.30;99.90
15413;DHT22;7805;49.554;7.632;2024-02-26T11:47:20;13.20;99.90
15413;DHT22;7805;49.554;7.632;2024-02-26T11:49:46;13.10;99.90
15413;DHT22;7805;49.554;7.632;2024-02-26T11:52:13;13.20;99.90
15413;DHT22;7805;49.554;7.632;2024-02-26T11:54:49;13.40;99.90
15413;DHT22;7805;49.554;7.632;2024-02-26T11:57:28;13.60;99.90
15413;DHT22;7805;49.554;7.632;2024-02-26T12:00:13;13.60;99.90
15413;DHT22;7805;49.554;7.632;2024-02-26T12:02:47;13.50;99.90
15413;DHT22;7805;49.554;7.632;2024-02-26T12:05:16;13.50;99.90
15413;DHT22;7805;49.554;7.632;2024-02-26T12:08:05;13.60;99.90
15413;DHT22;7805;49.554;7.632;2024-02-26T12:10:33;13.30;99.90
15413;DHT22;7805;49.554;7.632;2024-02-26T12:13:11;13.20;99.90
15413;DHT22;7805;49.554;7.632;2024-02-26T12:15:42;13.10;99.90
15413;DHT22;7805;49.554;7.632;2024-02-26T12:18:09;13.10;99.90
15413;DHT22;7805;49.554;7.632;2024-02-26T12:20:36;13.30;99.90
15413;DHT22;7805;49.554;7.632;2024-02-26T12:23:03;13.50;99.90
15413;DHT22;7805;49.554;7.632;2024-02-26T12:25:32;13.50;99.90
15413;DHT22;7805;49.554;7.632;2024-02-26T12:27:59;13.50;99.90
15413;DHT22;7805;49.554;7.632;2024-02-26T12:30:25;13.50;99.90
15413;DHT22;7805;49.554;7.632;2024-02-26T12:32:52;13.60;99.90
15413;DHT22;7805;49.554;7.632;2024-02-26T12:35:22;13.50;99.90
15413;DHT22;7805;49.554;7.632;2024-02-26T12:37:48;13.40;99.90
15413;DHT22;7805;49.554;7.632;2024-02-26T12:40:17;13.40;99.90
15413;DHT22;7805;49.554;7.632;2024-02-26T12:42:42;13.30;99.90
15413;DHT22;7805;49.554;7.632;2024-02-26T12:45:12;13.20;99.90
15413;DHT22;7805;49.554;7.632;2024-02-26T12:47:42;13.20;99.90
15413;DHT22;7805;49.554;7.632;2024-02-26T12:50:09;13.30;99.90
15413;DHT22;7805;49.554;7.632;2024-02-26T12:52:37;13.30;99.90
15413;DHT22;7805;49.554;7.632;2024-02-26T12:55:05;13.30;99.90
15413;DHT22;7805;49.554;7.632;2024-02-26T12:57:33;13.20;99.90
15413;DHT22;7805;49.554;7.632;2024-02-26T13:00:03;13.20;99.90
15413;DHT22;7805;49.554;7.632;2024-02-26T13:02:30;13.10;99.90
15413;DHT22;7805;49.554;7.632;2024-02-26T13:04:57;13.10;99.90
15413;DHT22;7805;49.554;7.632;2024-02-26T13:07:23;13.20;99.90
15413;DHT22;7805;49.554;7.632;2024-02-26T13:09:49;13.20;99.90
15413;DHT22;7805;49.554;7.632;2024-02-26T13:12:16;13.10;99.90
15413;DHT22;7805;49.554;7.632;2024-02-26T13:14:42;12.90;99.90
15413;DHT22;7805;49.554;7.632;2024-02-26T13:17:08;13.00;99.90
15413;DHT22;7805;49.554;7.632;2024-02-26T13:19:34;12.50;99.90
15413;DHT22;7805;49.554;7.632;2024-02-26T13:22:06;12.30;99.90
15413;DHT22;7805;49.554;7.632;2024-02-26T13:24:33;12.10;99.90
15413;DHT22;7805;49.554;7.632;2024-02-26T13:26:59;12.00;99.90
15413;DHT22;7805;49.554;7.632;2024-02-26T13:29:24;11.90;99.90
15413;DHT22;7805;49.554;7.632;2024-02-26T13:31:57;12.00;99.90
15413;DHT22;7805;49.554;7.632;2024-02-26T13:34:27;12.10;99.90
15413;DHT22;7805;49.554;7.632;2024-02-26T13:36:54;12.20;99.90
15413;DHT22;7805;49.554;7.632;2024-02-26T13:39:27;12.10;99.90
15413;DHT22;7805;49.554;7.632;2024-02-26T13:41:53;12.00;99.90
15413;DHT22;7805;49.554;7.632;2024-02-26T13:44:20;12.10;99.90
15413;DHT22;7805;49.554;7.632;2024-02-26T13:46:47;12.20;99.90
15413;DHT22;7805;49.554;7.632;2024-02-26T13:49:12;12.20;99.90
15413;DHT22;7805;49.554;7.632;2024-02-26T13:51:39;12.40;99.90
15413;DHT22;7805;49.554;7.632;2024-02-26T13:54:05;12.40;99.90
15413;DHT22;7805;49.554;7.632;2024-02-26T13:56:31;12.40;99.90
15413;DHT22;7805;49.554;7.632;2024-02-26T13:58:58;12.50;99.90
15413;DHT22;7805;49.554;7.632;2024-02-26T14:01:24;12.60;99.90
15413;DHT22;7805;49.554;7.632;2024-02-26T14:03:50;12.60;99.90
15413;DHT22;7805;49.554;7.632;2024-02-26T14:06:16;12.60;99.90
15413;DHT22;7805;49.554;7.632;2024-02-26T14:08:42;12.70;99.90
15413;DHT22;7805;49.554;7.632;2024-02-26T14:11:07;12.80;99.90
15413;DHT22;7805;49.554;7.632;2024-02-26T14:13:33;12.90;99.90
15413;DHT22;7805;49.554;7.632;2024-02-26T14:15:59;13.00;99.90
15413;DHT22;7805;49.554;7.632;2024-02-26T14:18:24;13.40;99.90
15413;DHT22;7805;49.554;7.632;2024-02-26T14:20:50;13.10;99.90
15413;DHT22;7805;49.554;7.632;2024-02-26T14:23:16;14.50;99.90
15413;DHT22;7805;49.554;7.632;2024-02-26T14:25:42;13.10;99.90
15413;DHT22;7805;49.554;7.632;2024-02-26T14:28:08;13.20;99.90
15413;DHT22;7805;49.554;7.632;2024-02-26T14:30:34;13.10;99.90
15413;DHT22;7805;49.554;7.632;2024-02-26T14:33:00;13.00;99.90
15413;DHT22;7805;49.554;7.632;2024-02-26T14:35:25;12.90;99.90
15413;DHT22;7805;49.554;7.632;2024-02-26T14:37:51;12.90;99.90
15413;DHT22;7805;49.554;7.632;2024-02-26T14:40:17;12.90;99.90
15413;DHT22;7805;49.554;7.632;2024-02-26T14:42:44;12.80;99.90
15413;DHT22;7805;49.554;7.632;2024-02-26T14:45:10;12.80;99.90
15413;DHT22;7805;49.554;7.632;2024-02-26T14:47:36;12.80;99.90
15413;DHT22;7805;49.554;7.632;2024-02-26T14:50:02;12.80;99.90
15413;DHT22;7805;49.554;7.632;2024-02-26T14:52:28;12.80;99.90
15413;DHT22;7805;49.554;7.632;2024-02-26T14:54:54;12.90;99.90
15413;DHT22;7805;49.554;7.632;2024-02-26T14:57:19;13.00;99.90
15413;DHT22;7805;49.554;7.632;2024-02-26T14:59:45;13.00;99.90
15413;DHT22;7805;49.554;7.632;2024-02-26T15:02:11;13.10;99.90
15413;DHT22;7805;49.554;7.632;2024-02-26T15:04:37;13.10;99.90
15413;DHT22;7805;49.554;7.632;2024-02-26T15:07:03;13.20;99.90
15413;DHT22;7805;49.554;7.632;2024-02-26T15:09:29;13.10;99.90
15413;DHT22;7805;49.554;7.632;2024-02-26T15:11:55;13.20;99.90
15413;DHT22;7805;49.554;7.632;2024-02-26T15:14:23;13.30;99.90
15413;DHT22;7805;49.554;7.632;2024-02-26T15:16:48;13.30;99.90
15413;DHT22;7805;49.554;7.632;2024-02-26T15:19:14;13.30;99.90
15413;DHT22;7805;49.554;7.632;2024-02-26T15:21:46;13.40;99.90
15413;DHT22;7805;49.554;7.632;2024-02-26T15:24:12;13.40;99.90
15413;DHT22;7805;49.554;7.632;2024-02-26T15:26:38;13.40;99.90
15413;DHT22;7805;49.554;7.632;2024-02-26T15:29:06;13.30;99.90
15413;DHT22;7805;49.554;7.632;2024-02-26T15:31:31;13.30;99.90
15413;DHT22;7805;49.554;7.632;2024-02-26T15:33:57;13.30;99.90
15413;DHT22;7805;49.554;7.632;2024-02-26T15:36:23;13.20;99.90
15413;DHT22;7805;49.554;7.632;2024-02-26T15:38:48;13.10;99.90
15413;DHT22;7805;49.554;7.632;2024-02-26T15:41:14;13.20;99.90
15413;DHT22;7805;49.554;7.632;2024-02-26T15:43:40;13.20;99.90
15413;DHT22;7805;49.554;7.632;2024-02-26T15:46:06;13.20;99.90
15413;DHT22;7805;49.554;7.632;2024-02-26T15:48:32;13.10;99.90
15413;DHT22;7805;49.554;7.632;2024-02-26T15:50:58;13.00;99.90